sensor_id;sensor_type;location;lat;lon;timestamp;P1;durP1;ratioP1;P2;durP2;ratioP2
30307;SDS011;17114;52.314;8.910;2022-12-08T00:00:53;33.17;;;19.60;;
30307;SDS011;17114;52.314;8.910;2022-12-08T00:03:20;33.58;;;19.02;;
30307;SDS011;17114;52.314;8.910;2022-12-08T00:05:47;34.67;;;20.30;;
30307;SDS011;17114;52.314;8.910;2022-12-08T00:08:33;41.35;;;20.83;;
30307;SDS011;17114;52.314;8.910;2022-12-08T00:11:19;32.33;;;19.13;;
30307;SDS011;17114;52.314;8.910;2022-12-08T00:13:45;33.33;;;19.85;;
30307;SDS011;17114;52.314;8.910;2022-12-08T00:16:12;35.40;;;20.45;;
30307;SDS011;17114;52.314;8.910;2022-12-08T00:18:39;34.60;;;19.33;;
30307;SDS011;17114;52.314;8.910;2022-12-08T00:21:06;40.55;;;19.83;;
30307;SDS011;17114;52.314;8.910;2022-12-08T00:23:33;34.25;;;19.23;;
30307;SDS011;17114;52.314;8.910;2022-12-08T00:26:00;33.70;;;18.85;;
30307;SDS011;17114;52.314;8.910;2022-12-08T00:28:28;33.67;;;18.65;;
30307;SDS011;17114;52.314;8.910;2022-12-08T00:30:56;32.97;;;18.67;;
30307;SDS011;17114;52.314;8.910;2022-12-08T00:33:23;39.28;;;19.25;;
30307;SDS011;17114;52.314;8.910;2022-12-08T00:35:50;34.90;;;18.95;;
30307;SDS011;17114;52.314;8.910;2022-12-08T00:38:17;37.00;;;20.05;;
30307;SDS011;17114;52.314;8.910;2022-12-08T00:40:44;37.40;;;20.73;;
30307;SDS011;17114;52.314;8.910;2022-12-08T00:43:12;40.08;;;20.27;;
30307;SDS011;17114;52.314;8.910;2022-12-08T00:45:39;34.05;;;19.60;;
30307;SDS011;17114;52.314;8.910;2022-12-08T00:48:06;35.42;;;20.95;;
30307;SDS011;17114;52.314;8.910;2022-12-08T00:50:33;42.70;;;20.50;;
30307;SDS011;17114;52.314;8.910;2022-12-08T00:53:00;35.88;;;20.35;;
30307;SDS011;17114;52.314;8.910;2022-12-08T00:55:27;46.30;;;21.33;;
30307;SDS011;17114;52.314;8.910;2022-12-08T00:57:53;41.28;;;21.55;;
30307;SDS011;17114;52.314;8.910;2022-12-08T01:00:20;37.67;;;21.85;;
30307;SDS011;17114;52.314;8.910;2022-12-08T01:02:47;38.17;;;21.83;;
30307;SDS011;17114;52.314;8.910;2022-12-08T01:05:14;41.78;;;22.70;;
30307;SDS011;17114;52.314;8.910;2022-12-08T01:10:17;40.50;;;23.40;;
30307;SDS011;17114;52.314;8.910;2022-12-08T01:12:44;41.22;;;23.48;;
30307;SDS011;17114;52.314;8.910;2022-12-08T01:15:11;44.72;;;22.83;;
30307;SDS011;17114;52.314;8.910;2022-12-08T01:17:38;40.42;;;21.80;;
30307;SDS011;17114;52.314;8.910;2022-12-08T01:20:05;39.58;;;21.58;;
30307;SDS011;17114;52.314;8.910;2022-12-08T01:22:33;42.22;;;22.25;;
30307;SDS011;17114;52.314;8.910;2022-12-08T01:25:02;43.42;;;22.90;;
30307;SDS011;17114;52.314;8.910;2022-12-08T01:27:29;38.38;;;22.85;;
30307;SDS011;17114;52.314;8.910;2022-12-08T01:29:56;43.42;;;24.55;;
30307;SDS011;17114;52.314;8.910;2022-12-08T01:32:23;40.85;;;22.88;;
30307;SDS011;17114;52.314;8.910;2022-12-08T01:34:49;46.35;;;22.83;;
30307;SDS011;17114;52.314;8.910;2022-12-08T01:37:16;39.15;;;22.10;;
30307;SDS011;17114;52.314;8.910;2022-12-08T01:39:43;39.05;;;22.05;;
30307;SDS011;17114;52.314;8.910;2022-12-08T01:42:19;38.72;;;22.27;;
30307;SDS011;17114;52.314;8.910;2022-12-08T01:45:06;41.10;;;21.15;;
30307;SDS011;17114;52.314;8.910;2022-12-08T01:48:05;41.78;;;21.83;;
30307;SDS011;17114;52.314;8.910;2022-12-08T01:50:37;34.08;;;21.02;;
30307;SDS011;17114;52.314;8.910;2022-12-08T01:53:07;34.00;;;20.75;;
30307;SDS011;17114;52.314;8.910;2022-12-08T01:55:39;36.88;;;19.95;;
30307;SDS011;17114;52.314;8.910;2022-12-08T01:58:51;35.97;;;20.13;;
30307;SDS011;17114;52.314;8.910;2022-12-08T02:01:03;38.95;;;21.50;;
30307;SDS011;17114;52.314;8.910;2022-12-08T02:03:34;38.28;;;20.55;;
30307;SDS011;17114;52.314;8.910;2022-12-08T02:06:07;36.50;;;20.20;;
30307;SDS011;17114;52.314;8.910;2022-12-08T02:08:35;35.10;;;20.08;;
30307;SDS011;17114;52.314;8.910;2022-12-08T02:11:08;35.40;;;20.33;;
30307;SDS011;17114;52.314;8.910;2022-12-08T02:13:36;42.80;;;21.80;;
30307;SDS011;17114;52.314;8.910;2022-12-08T02:18:51;31.48;;;16.60;;
30307;SDS011;17114;52.314;8.910;2022-12-08T02:35:13;42.42;;;22.15;;
30307;SDS011;17114;52.314;8.910;2022-12-08T02:43:23;41.50;;;22.73;;
30307;SDS011;17114;52.314;8.910;2022-12-08T02:48:36;42.08;;;22.83;;
30307;SDS011;17114;52.314;8.910;2022-12-08T02:51:03;50.83;;;24.50;;
30307;SDS011;17114;52.314;8.910;2022-12-08T02:53:31;45.38;;;25.02;;
30307;SDS011;17114;52.314;8.910;2022-12-08T03:04:50;45.25;;;25.13;;
30307;SDS011;17114;52.314;8.910;2022-12-08T03:13:16;46.63;;;24.92;;
30307;SDS011;17114;52.314;8.910;2022-12-08T03:15:47;45.25;;;25.13;;
30307;SDS011;17114;52.314;8.910;2022-12-08T03:18:16;43.42;;;24.65;;
30307;SDS011;17114;52.314;8.910;2022-12-08T03:20:48;47.70;;;25.48;;
30307;SDS011;17114;52.314;8.910;2022-12-08T03:23:16;46.33;;;25.85;;
30307;SDS011;17114;52.314;8.910;2022-12-08T03:25:49;44.95;;;25.42;;
30307;SDS011;17114;52.314;8.910;2022-12-08T03:28:30;43.92;;;25.48;;
30307;SDS011;17114;52.314;8.910;2022-12-08T03:30:58;50.45;;;25.90;;
30307;SDS011;17114;52.314;8.910;2022-12-08T03:33:31;45.42;;;24.77;;
30307;SDS011;17114;52.314;8.910;2022-12-08T03:36:03;49.63;;;25.60;;
30307;SDS011;17114;52.314;8.910;2022-12-08T03:38:36;49.20;;;24.65;;
30307;SDS011;17114;52.314;8.910;2022-12-08T03:41:04;43.97;;;24.00;;
30307;SDS011;17114;52.314;8.910;2022-12-08T03:43:47;44.15;;;23.63;;
30307;SDS011;17114;52.314;8.910;2022-12-08T03:46:23;46.25;;;23.50;;
30307;SDS011;17114;52.314;8.910;2022-12-08T03:48:50;43.80;;;23.15;;
30307;SDS011;17114;52.314;8.910;2022-12-08T03:51:17;45.50;;;24.23;;
30307;SDS011;17114;52.314;8.910;2022-12-08T03:53:45;44.42;;;24.15;;
30307;SDS011;17114;52.314;8.910;2022-12-08T03:56:20;45.05;;;24.27;;
30307;SDS011;17114;52.314;8.910;2022-12-08T03:58:50;49.00;;;24.73;;
30307;SDS011;17114;52.314;8.910;2022-12-08T04:01:18;44.80;;;23.60;;
30307;SDS011;17114;52.314;8.910;2022-12-08T04:03:46;49.70;;;23.33;;
30307;SDS011;17114;52.314;8.910;2022-12-08T04:06:13;45.80;;;25.13;;
30307;SDS011;17114;52.314;8.910;2022-12-08T04:08:40;40.30;;;23.08;;
30307;SDS011;17114;52.314;8.910;2022-12-08T04:11:07;41.72;;;23.35;;
30307;SDS011;17114;52.314;8.910;2022-12-08T04:13:35;39.72;;;21.95;;
30307;SDS011;17114;52.314;8.910;2022-12-08T04:16:03;41.47;;;22.10;;
30307;SDS011;17114;52.314;8.910;2022-12-08T04:18:31;42.53;;;22.85;;
30307;SDS011;17114;52.314;8.910;2022-12-08T04:20:58;39.85;;;23.05;;
30307;SDS011;17114;52.314;8.910;2022-12-08T04:23:25;41.63;;;22.30;;
30307;SDS011;17114;52.314;8.910;2022-12-08T04:25:52;40.33;;;24.42;;
30307;SDS011;17114;52.314;8.910;2022-12-08T04:28:19;41.10;;;22.73;;
30307;SDS011;17114;52.314;8.910;2022-12-08T04:30:47;39.92;;;22.40;;
30307;SDS011;17114;52.314;8.910;2022-12-08T04:33:15;41.35;;;23.52;;
30307;SDS011;17114;52.314;8.910;2022-12-08T04:35:42;40.90;;;22.85;;
30307;SDS011;17114;52.314;8.910;2022-12-08T04:38:09;41.78;;;22.52;;
30307;SDS011;17114;52.314;8.910;2022-12-08T04:40:36;38.78;;;22.63;;
30307;SDS011;17114;52.314;8.910;2022-12-08T04:43:03;40.42;;;22.10;;
30307;SDS011;17114;52.314;8.910;2022-12-08T04:45:30;42.00;;;21.73;;
30307;SDS011;17114;52.314;8.910;2022-12-08T04:47:58;35.85;;;21.42;;
30307;SDS011;17114;52.314;8.910;2022-12-08T04:50:25;37.58;;;22.13;;
30307;SDS011;17114;52.314;8.910;2022-12-08T04:52:53;40.95;;;21.58;;
30307;SDS011;17114;52.314;8.910;2022-12-08T04:55:20;35.88;;;21.70;;
30307;SDS011;17114;52.314;8.910;2022-12-08T04:57:46;39.38;;;20.98;;
30307;SDS011;17114;52.314;8.910;2022-12-08T05:00:13;37.67;;;20.30;;
30307;SDS011;17114;52.314;8.910;2022-12-08T05:02:40;36.90;;;19.80;;
30307;SDS011;17114;52.314;8.910;2022-12-08T05:05:07;39.40;;;20.92;;
30307;SDS011;17114;52.314;8.910;2022-12-08T05:07:35;33.40;;;19.60;;
30307;SDS011;17114;52.314;8.910;2022-12-08T05:10:02;32.97;;;19.85;;
30307;SDS011;17114;52.314;8.910;2022-12-08T05:12:29;33.58;;;19.75;;
30307;SDS011;17114;52.314;8.910;2022-12-08T05:14:56;30.00;;;18.90;;
30307;SDS011;17114;52.314;8.910;2022-12-08T05:17:23;33.80;;;19.58;;
30307;SDS011;17114;52.314;8.910;2022-12-08T05:19:50;31.33;;;18.75;;
30307;SDS011;17114;52.314;8.910;2022-12-08T05:22:17;29.27;;;18.42;;
30307;SDS011;17114;52.314;8.910;2022-12-08T05:24:44;29.23;;;17.85;;
30307;SDS011;17114;52.314;8.910;2022-12-08T05:27:13;30.55;;;18.48;;
30307;SDS011;17114;52.314;8.910;2022-12-08T05:29:40;27.65;;;16.45;;
30307;SDS011;17114;52.314;8.910;2022-12-08T05:32:07;28.92;;;17.38;;
30307;SDS011;17114;52.314;8.910;2022-12-08T05:34:34;26.38;;;17.38;;
30307;SDS011;17114;52.314;8.910;2022-12-08T05:37:01;29.42;;;17.20;;
30307;SDS011;17114;52.314;8.910;2022-12-08T05:39:28;28.35;;;17.27;;
30307;SDS011;17114;52.314;8.910;2022-12-08T05:41:55;25.35;;;17.05;;
30307;SDS011;17114;52.314;8.910;2022-12-08T05:44:22;24.85;;;16.83;;
30307;SDS011;17114;52.314;8.910;2022-12-08T05:46:49;25.45;;;17.08;;
30307;SDS011;17114;52.314;8.910;2022-12-08T05:49:16;28.55;;;17.27;;
30307;SDS011;17114;52.314;8.910;2022-12-08T05:51:43;28.25;;;17.95;;
30307;SDS011;17114;52.314;8.910;2022-12-08T05:54:10;26.38;;;17.58;;
30307;SDS011;17114;52.314;8.910;2022-12-08T05:56:36;31.70;;;19.15;;
30307;SDS011;17114;52.314;8.910;2022-12-08T05:59:06;27.73;;;18.67;;
30307;SDS011;17114;52.314;8.910;2022-12-08T06:01:34;36.83;;;21.25;;
30307;SDS011;17114;52.314;8.910;2022-12-08T06:04:01;37.08;;;20.48;;
30307;SDS011;17114;52.314;8.910;2022-12-08T06:06:29;37.35;;;20.98;;
30307;SDS011;17114;52.314;8.910;2022-12-08T06:09:00;36.40;;;22.65;;
30307;SDS011;17114;52.314;8.910;2022-12-08T06:11:29;35.17;;;20.83;;
30307;SDS011;17114;52.314;8.910;2022-12-08T06:13:57;33.15;;;19.98;;
30307;SDS011;17114;52.314;8.910;2022-12-08T06:16:25;31.88;;;20.50;;
30307;SDS011;17114;52.314;8.910;2022-12-08T06:18:53;34.25;;;20.55;;
30307;SDS011;17114;52.314;8.910;2022-12-08T06:21:20;33.08;;;20.73;;
30307;SDS011;17114;52.314;8.910;2022-12-08T06:23:49;34.67;;;21.13;;
30307;SDS011;17114;52.314;8.910;2022-12-08T06:26:17;35.10;;;21.90;;
30307;SDS011;17114;52.314;8.910;2022-12-08T06:28:45;36.13;;;23.02;;
30307;SDS011;17114;52.314;8.910;2022-12-08T06:31:16;37.00;;;23.10;;
30307;SDS011;17114;52.314;8.910;2022-12-08T06:33:45;39.17;;;23.77;;
30307;SDS011;17114;52.314;8.910;2022-12-08T06:36:12;43.15;;;23.33;;
30307;SDS011;17114;52.314;8.910;2022-12-08T06:38:41;42.70;;;24.83;;
30307;SDS011;17114;52.314;8.910;2022-12-08T06:41:09;43.75;;;24.70;;
30307;SDS011;17114;52.314;8.910;2022-12-08T06:43:40;44.42;;;25.23;;
30307;SDS011;17114;52.314;8.910;2022-12-08T06:46:09;47.95;;;25.75;;
30307;SDS011;17114;52.314;8.910;2022-12-08T06:48:38;42.95;;;25.42;;
30307;SDS011;17114;52.314;8.910;2022-12-08T06:51:09;44.03;;;25.23;;
30307;SDS011;17114;52.314;8.910;2022-12-08T06:53:38;48.50;;;26.52;;
30307;SDS011;17114;52.314;8.910;2022-12-08T06:56:06;47.22;;;26.25;;
30307;SDS011;17114;52.314;8.910;2022-12-08T06:58:33;46.47;;;26.65;;
30307;SDS011;17114;52.314;8.910;2022-12-08T07:01:04;41.33;;;25.00;;
30307;SDS011;17114;52.314;8.910;2022-12-08T07:03:31;48.83;;;26.92;;
30307;SDS011;17114;52.314;8.910;2022-12-08T07:05:59;45.47;;;25.25;;
30307;SDS011;17114;52.314;8.910;2022-12-08T07:08:29;46.00;;;25.58;;
30307;SDS011;17114;52.314;8.910;2022-12-08T07:10:57;44.65;;;26.30;;
30307;SDS011;17114;52.314;8.910;2022-12-08T07:13:24;45.85;;;26.77;;
30307;SDS011;17114;52.314;8.910;2022-12-08T07:15:51;43.83;;;25.58;;
30307;SDS011;17114;52.314;8.910;2022-12-08T07:18:18;42.88;;;25.05;;
30307;SDS011;17114;52.314;8.910;2022-12-08T07:20:45;43.33;;;24.45;;
30307;SDS011;17114;52.314;8.910;2022-12-08T07:23:12;42.20;;;25.23;;
30307;SDS011;17114;52.314;8.910;2022-12-08T07:25:39;39.50;;;24.92;;
30307;SDS011;17114;52.314;8.910;2022-12-08T07:28:06;41.88;;;24.83;;
30307;SDS011;17114;52.314;8.910;2022-12-08T07:30:35;45.60;;;25.30;;
30307;SDS011;17114;52.314;8.910;2022-12-08T07:33:02;39.92;;;24.33;;
30307;SDS011;17114;52.314;8.910;2022-12-08T07:35:31;41.20;;;23.75;;
30307;SDS011;17114;52.314;8.910;2022-12-08T07:38:00;37.30;;;23.33;;
30307;SDS011;17114;52.314;8.910;2022-12-08T07:40:27;39.33;;;23.83;;
30307;SDS011;17114;52.314;8.910;2022-12-08T07:42:54;38.78;;;23.85;;
30307;SDS011;17114;52.314;8.910;2022-12-08T07:45:21;41.67;;;24.60;;
30307;SDS011;17114;52.314;8.910;2022-12-08T07:47:56;40.25;;;24.90;;
30307;SDS011;17114;52.314;8.910;2022-12-08T07:50:23;41.55;;;24.42;;
30307;SDS011;17114;52.314;8.910;2022-12-08T07:52:50;41.33;;;23.80;;
30307;SDS011;17114;52.314;8.910;2022-12-08T07:55:16;41.03;;;24.45;;
30307;SDS011;17114;52.314;8.910;2022-12-08T07:57:43;42.80;;;25.65;;
30307;SDS011;17114;52.314;8.910;2022-12-08T08:00:10;44.80;;;25.10;;
30307;SDS011;17114;52.314;8.910;2022-12-08T08:02:38;41.58;;;24.55;;
30307;SDS011;17114;52.314;8.910;2022-12-08T08:05:05;42.92;;;26.00;;
30307;SDS011;17114;52.314;8.910;2022-12-08T08:07:33;39.95;;;24.70;;
30307;SDS011;17114;52.314;8.910;2022-12-08T08:10:00;41.33;;;25.65;;
30307;SDS011;17114;52.314;8.910;2022-12-08T08:12:27;41.97;;;24.52;;
30307;SDS011;17114;52.314;8.910;2022-12-08T08:14:58;51.47;;;28.05;;
30307;SDS011;17114;52.314;8.910;2022-12-08T08:17:26;42.28;;;24.92;;
30307;SDS011;17114;52.314;8.910;2022-12-08T08:19:54;44.35;;;26.02;;
30307;SDS011;17114;52.314;8.910;2022-12-08T08:22:21;40.70;;;23.70;;
30307;SDS011;17114;52.314;8.910;2022-12-08T08:24:48;43.13;;;25.55;;
30307;SDS011;17114;52.314;8.910;2022-12-08T08:27:15;38.85;;;23.27;;
30307;SDS011;17114;52.314;8.910;2022-12-08T08:29:41;40.13;;;23.65;;
30307;SDS011;17114;52.314;8.910;2022-12-08T08:32:08;42.70;;;24.48;;
30307;SDS011;17114;52.314;8.910;2022-12-08T08:34:35;40.28;;;23.80;;
30307;SDS011;17114;52.314;8.910;2022-12-08T08:37:02;41.97;;;24.52;;
30307;SDS011;17114;52.314;8.910;2022-12-08T08:39:29;42.72;;;24.73;;
30307;SDS011;17114;52.314;8.910;2022-12-08T08:41:57;38.88;;;23.90;;
30307;SDS011;17114;52.314;8.910;2022-12-08T08:44:24;36.88;;;21.05;;
30307;SDS011;17114;52.314;8.910;2022-12-08T08:46:50;28.52;;;18.00;;
30307;SDS011;17114;52.314;8.910;2022-12-08T08:49:18;22.27;;;14.43;;
30307;SDS011;17114;52.314;8.910;2022-12-08T08:51:45;25.83;;;14.95;;
30307;SDS011;17114;52.314;8.910;2022-12-08T08:54:12;25.60;;;15.57;;
30307;SDS011;17114;52.314;8.910;2022-12-08T08:56:39;26.25;;;15.55;;
30307;SDS011;17114;52.314;8.910;2022-12-08T08:59:05;28.58;;;15.88;;
30307;SDS011;17114;52.314;8.910;2022-12-08T09:01:32;28.15;;;16.95;;
30307;SDS011;17114;52.314;8.910;2022-12-08T09:03:59;27.35;;;16.70;;
30307;SDS011;17114;52.314;8.910;2022-12-08T09:06:26;22.98;;;14.55;;
30307;SDS011;17114;52.314;8.910;2022-12-08T09:08:54;23.30;;;15.02;;
30307;SDS011;17114;52.314;8.910;2022-12-08T09:11:21;25.48;;;16.23;;
30307;SDS011;17114;52.314;8.910;2022-12-08T09:13:49;24.65;;;16.25;;
30307;SDS011;17114;52.314;8.910;2022-12-08T09:16:17;28.40;;;16.70;;
30307;SDS011;17114;52.314;8.910;2022-12-08T09:18:45;26.40;;;16.27;;
30307;SDS011;17114;52.314;8.910;2022-12-08T09:21:14;24.02;;;15.23;;
30307;SDS011;17114;52.314;8.910;2022-12-08T09:23:45;26.17;;;15.88;;
30307;SDS011;17114;52.314;8.910;2022-12-08T09:26:12;24.05;;;14.90;;
30307;SDS011;17114;52.314;8.910;2022-12-08T09:28:39;24.05;;;14.48;;
30307;SDS011;17114;52.314;8.910;2022-12-08T09:31:12;24.35;;;14.88;;
30307;SDS011;17114;52.314;8.910;2022-12-08T09:33:39;20.38;;;13.27;;
30307;SDS011;17114;52.314;8.910;2022-12-08T09:36:06;20.98;;;12.05;;
30307;SDS011;17114;52.314;8.910;2022-12-08T09:38:34;19.25;;;11.60;;
30307;SDS011;17114;52.314;8.910;2022-12-08T09:41:03;17.77;;;11.88;;
30307;SDS011;17114;52.314;8.910;2022-12-08T09:43:52;19.02;;;11.65;;
30307;SDS011;17114;52.314;8.910;2022-12-08T09:46:27;17.02;;;11.45;;
30307;SDS011;17114;52.314;8.910;2022-12-08T09:48:58;17.27;;;11.32;;
30307;SDS011;17114;52.314;8.910;2022-12-08T09:51:26;17.23;;;11.68;;
30307;SDS011;17114;52.314;8.910;2022-12-08T09:54:02;18.92;;;12.07;;
30307;SDS011;17114;52.314;8.910;2022-12-08T09:56:37;17.30;;;10.88;;
30307;SDS011;17114;52.314;8.910;2022-12-08T10:01:35;17.08;;;10.35;;
30307;SDS011;17114;52.314;8.910;2022-12-08T10:06:48;14.43;;;8.95;;
30307;SDS011;17114;52.314;8.910;2022-12-08T10:14:46;13.85;;;8.68;;
30307;SDS011;17114;52.314;8.910;2022-12-08T10:17:48;16.52;;;9.10;;
30307;SDS011;17114;52.314;8.910;2022-12-08T10:20:18;16.50;;;9.57;;
30307;SDS011;17114;52.314;8.910;2022-12-08T10:23:05;16.80;;;10.25;;
30307;SDS011;17114;52.314;8.910;2022-12-08T10:25:40;16.48;;;10.10;;
30307;SDS011;17114;52.314;8.910;2022-12-08T10:28:14;17.20;;;10.60;;
30307;SDS011;17114;52.314;8.910;2022-12-08T10:30:41;17.17;;;11.07;;
30307;SDS011;17114;52.314;8.910;2022-12-08T10:33:13;16.23;;;10.68;;
30307;SDS011;17114;52.314;8.910;2022-12-08T10:38:22;17.90;;;10.35;;
30307;SDS011;17114;52.314;8.910;2022-12-08T10:41:14;18.38;;;10.90;;
30307;SDS011;17114;52.314;8.910;2022-12-08T10:43:45;16.75;;;10.20;;
30307;SDS011;17114;52.314;8.910;2022-12-08T10:46:16;19.15;;;10.80;;
30307;SDS011;17114;52.314;8.910;2022-12-08T10:48:56;17.30;;;11.07;;
30307;SDS011;17114;52.314;8.910;2022-12-08T10:53:59;19.95;;;11.95;;
30307;SDS011;17114;52.314;8.910;2022-12-08T10:56:28;18.33;;;11.45;;
30307;SDS011;17114;52.314;8.910;2022-12-08T11:01:47;20.60;;;11.85;;
30307;SDS011;17114;52.314;8.910;2022-12-08T11:04:20;20.50;;;12.88;;
30307;SDS011;17114;52.314;8.910;2022-12-08T11:14:22;16.88;;;10.85;;
30307;SDS011;17114;52.314;8.910;2022-12-08T11:19:45;18.55;;;11.27;;
30307;SDS011;17114;52.314;8.910;2022-12-08T11:22:32;19.23;;;10.93;;
30307;SDS011;17114;52.314;8.910;2022-12-08T11:27:33;18.13;;;11.35;;
30307;SDS011;17114;52.314;8.910;2022-12-08T11:30:05;18.08;;;11.38;;
30307;SDS011;17114;52.314;8.910;2022-12-08T11:32:44;19.27;;;11.57;;
30307;SDS011;17114;52.314;8.910;2022-12-08T11:35:20;17.40;;;10.35;;
30307;SDS011;17114;52.314;8.910;2022-12-08T11:38:04;18.35;;;11.98;;
30307;SDS011;17114;52.314;8.910;2022-12-08T11:40:47;18.40;;;11.55;;
30307;SDS011;17114;52.314;8.910;2022-12-08T11:46:00;19.15;;;11.70;;
30307;SDS011;17114;52.314;8.910;2022-12-08T11:48:44;20.45;;;11.82;;
30307;SDS011;17114;52.314;8.910;2022-12-08T11:52:01;20.35;;;12.68;;
30307;SDS011;17114;52.314;8.910;2022-12-08T11:54:51;19.73;;;12.40;;
30307;SDS011;17114;52.314;8.910;2022-12-08T11:57:21;21.80;;;13.25;;
30307;SDS011;17114;52.314;8.910;2022-12-08T11:59:53;21.45;;;13.68;;
30307;SDS011;17114;52.314;8.910;2022-12-08T12:02:26;21.80;;;13.85;;
30307;SDS011;17114;52.314;8.910;2022-12-08T12:05:02;21.35;;;13.43;;
30307;SDS011;17114;52.314;8.910;2022-12-08T12:10:24;21.80;;;13.35;;
30307;SDS011;17114;52.314;8.910;2022-12-08T12:13:12;24.73;;;14.23;;
30307;SDS011;17114;52.314;8.910;2022-12-08T12:18:49;26.27;;;14.68;;
30307;SDS011;17114;52.314;8.910;2022-12-08T12:24:03;23.45;;;14.90;;
30307;SDS011;17114;52.314;8.910;2022-12-08T12:26:36;24.85;;;14.90;;
30307;SDS011;17114;52.314;8.910;2022-12-08T12:29:18;23.88;;;14.55;;
30307;SDS011;17114;52.314;8.910;2022-12-08T12:31:51;26.23;;;15.30;;
30307;SDS011;17114;52.314;8.910;2022-12-08T12:37:06;24.90;;;15.00;;
30307;SDS011;17114;52.314;8.910;2022-12-08T12:40:39;25.50;;;15.25;;
30307;SDS011;17114;52.314;8.910;2022-12-08T12:47:51;25.38;;;14.70;;
30307;SDS011;17114;52.314;8.910;2022-12-08T13:06:20;20.98;;;12.68;;
30307;SDS011;17114;52.314;8.910;2022-12-08T13:08:50;21.52;;;13.65;;
30307;SDS011;17114;52.314;8.910;2022-12-08T13:11:19;21.42;;;12.95;;
30307;SDS011;17114;52.314;8.910;2022-12-08T13:13:54;24.27;;;12.82;;
30307;SDS011;17114;52.314;8.910;2022-12-08T13:16:26;22.27;;;12.73;;
30307;SDS011;17114;52.314;8.910;2022-12-08T13:18:58;22.02;;;12.27;;
30307;SDS011;17114;52.314;8.910;2022-12-08T13:21:34;21.95;;;11.95;;
30307;SDS011;17114;52.314;8.910;2022-12-08T13:26:48;19.60;;;11.75;;
30307;SDS011;17114;52.314;8.910;2022-12-08T13:29:36;20.38;;;11.73;;
30307;SDS011;17114;52.314;8.910;2022-12-08T13:34:42;22.08;;;11.70;;
30307;SDS011;17114;52.314;8.910;2022-12-08T13:37:41;24.73;;;14.07;;
30307;SDS011;17114;52.314;8.910;2022-12-08T13:40:21;32.95;;;18.30;;
30307;SDS011;17114;52.314;8.910;2022-12-08T13:45:24;21.02;;;13.55;;
30307;SDS011;17114;52.314;8.910;2022-12-08T13:48:31;20.02;;;11.63;;
30307;SDS011;17114;52.314;8.910;2022-12-08T13:51:42;20.58;;;12.35;;
30307;SDS011;17114;52.314;8.910;2022-12-08T13:54:33;22.77;;;13.60;;
30307;SDS011;17114;52.314;8.910;2022-12-08T13:57:26;21.33;;;12.35;;
30307;SDS011;17114;52.314;8.910;2022-12-08T13:59:59;20.15;;;11.48;;
30307;SDS011;17114;52.314;8.910;2022-12-08T14:02:40;23.77;;;12.27;;
30307;SDS011;17114;52.314;8.910;2022-12-08T14:05:13;12.68;;;8.20;;
30307;SDS011;17114;52.314;8.910;2022-12-08T14:07:45;20.38;;;11.55;;
30307;SDS011;17114;52.314;8.910;2022-12-08T14:10:21;18.20;;;10.77;;
30307;SDS011;17114;52.314;8.910;2022-12-08T14:12:53;19.63;;;11.20;;
30307;SDS011;17114;52.314;8.910;2022-12-08T14:15:23;17.42;;;10.32;;
30307;SDS011;17114;52.314;8.910;2022-12-08T14:17:52;18.05;;;10.40;;
30307;SDS011;17114;52.314;8.910;2022-12-08T14:20:23;18.30;;;10.60;;
30307;SDS011;17114;52.314;8.910;2022-12-08T14:22:53;16.73;;;9.40;;
30307;SDS011;17114;52.314;8.910;2022-12-08T14:25:21;13.70;;;8.60;;
30307;SDS011;17114;52.314;8.910;2022-12-08T14:27:49;14.52;;;7.97;;
30307;SDS011;17114;52.314;8.910;2022-12-08T14:30:25;15.32;;;8.55;;
30307;SDS011;17114;52.314;8.910;2022-12-08T14:32:59;17.50;;;9.13;;
30307;SDS011;17114;52.314;8.910;2022-12-08T14:35:29;21.92;;;16.08;;
30307;SDS011;17114;52.314;8.910;2022-12-08T14:37:59;13.55;;;7.80;;
30307;SDS011;17114;52.314;8.910;2022-12-08T14:40:31;12.45;;;8.35;;
30307;SDS011;17114;52.314;8.910;2022-12-08T14:46:19;16.23;;;9.88;;
30307;SDS011;17114;52.314;8.910;2022-12-08T14:48:38;18.17;;;10.18;;
30307;SDS011;17114;52.314;8.910;2022-12-08T14:53:52;18.40;;;9.45;;
30307;SDS011;17114;52.314;8.910;2022-12-08T15:01:42;18.77;;;10.85;;
30307;SDS011;17114;52.314;8.910;2022-12-08T15:07:03;25.35;;;10.40;;
30307;SDS011;17114;52.314;8.910;2022-12-08T15:09:40;19.08;;;9.85;;
30307;SDS011;17114;52.314;8.910;2022-12-08T15:14:40;24.42;;;11.90;;
30307;SDS011;17114;52.314;8.910;2022-12-08T15:23:25;18.60;;;11.48;;
30307;SDS011;17114;52.314;8.910;2022-12-08T15:28:22;16.63;;;8.85;;
30307;SDS011;17114;52.314;8.910;2022-12-08T15:30:57;11.15;;;6.70;;
30307;SDS011;17114;52.314;8.910;2022-12-08T15:33:24;22.98;;;9.93;;
30307;SDS011;17114;52.314;8.910;2022-12-08T15:35:51;20.42;;;10.20;;
30307;SDS011;17114;52.314;8.910;2022-12-08T15:38:25;15.63;;;9.65;;
30307;SDS011;17114;52.314;8.910;2022-12-08T15:40:55;16.50;;;9.57;;
30307;SDS011;17114;52.314;8.910;2022-12-08T15:43:24;19.27;;;9.15;;
30307;SDS011;17114;52.314;8.910;2022-12-08T15:45:51;20.70;;;9.45;;
30307;SDS011;17114;52.314;8.910;2022-12-08T15:48:26;17.98;;;8.10;;
30307;SDS011;17114;52.314;8.910;2022-12-08T15:50:54;17.20;;;10.75;;
30307;SDS011;17114;52.314;8.910;2022-12-08T15:53:22;17.48;;;11.02;;
30307;SDS011;17114;52.314;8.910;2022-12-08T15:55:49;20.00;;;10.45;;
30307;SDS011;17114;52.314;8.910;2022-12-08T15:58:36;18.13;;;10.70;;
30307;SDS011;17114;52.314;8.910;2022-12-08T16:01:19;26.55;;;10.27;;
30307;SDS011;17114;52.314;8.910;2022-12-08T16:03:46;13.75;;;8.63;;
30307;SDS011;17114;52.314;8.910;2022-12-08T16:06:33;18.23;;;10.15;;
30307;SDS011;17114;52.314;8.910;2022-12-08T16:11:58;15.90;;;9.75;;
30307;SDS011;17114;52.314;8.910;2022-12-08T16:14:44;18.55;;;10.73;;
30307;SDS011;17114;52.314;8.910;2022-12-08T16:17:32;16.05;;;10.15;;
30307;SDS011;17114;52.314;8.910;2022-12-08T16:20:03;17.67;;;10.45;;
30307;SDS011;17114;52.314;8.910;2022-12-08T16:22:33;18.15;;;10.75;;
30307;SDS011;17114;52.314;8.910;2022-12-08T16:25:20;19.23;;;9.80;;
30307;SDS011;17114;52.314;8.910;2022-12-08T16:27:50;15.80;;;9.32;;
30307;SDS011;17114;52.314;8.910;2022-12-08T16:30:39;20.02;;;9.88;;
30307;SDS011;17114;52.314;8.910;2022-12-08T16:33:06;20.23;;;11.57;;
30307;SDS011;17114;52.314;8.910;2022-12-08T16:35:32;20.63;;;12.27;;
30307;SDS011;17114;52.314;8.910;2022-12-08T16:37:59;18.88;;;11.38;;
30307;SDS011;17114;52.314;8.910;2022-12-08T16:40:26;18.75;;;10.98;;
30307;SDS011;17114;52.314;8.910;2022-12-08T16:42:53;29.95;;;12.23;;
30307;SDS011;17114;52.314;8.910;2022-12-08T16:45:21;27.33;;;15.50;;
30307;SDS011;17114;52.314;8.910;2022-12-08T16:50:31;26.65;;;15.30;;
30307;SDS011;17114;52.314;8.910;2022-12-08T16:53:00;29.08;;;16.08;;
30307;SDS011;17114;52.314;8.910;2022-12-08T16:55:29;30.80;;;16.45;;
30307;SDS011;17114;52.314;8.910;2022-12-08T16:57:57;28.85;;;15.88;;
30307;SDS011;17114;52.314;8.910;2022-12-08T17:00:24;25.50;;;14.45;;
30307;SDS011;17114;52.314;8.910;2022-12-08T17:02:53;26.00;;;15.85;;
30307;SDS011;17114;52.314;8.910;2022-12-08T17:05:22;27.33;;;15.68;;
30307;SDS011;17114;52.314;8.910;2022-12-08T17:07:51;29.40;;;17.98;;
30307;SDS011;17114;52.314;8.910;2022-12-08T17:10:21;31.02;;;18.38;;
30307;SDS011;17114;52.314;8.910;2022-12-08T17:12:52;28.10;;;17.50;;